createdAt,value
2022-08-25T00:00:50.729Z,100553.33
2022-08-25T00:02:00.516Z,100558.73
2022-08-25T00:03:06.246Z,100552.64
2022-08-25T00:04:14.404Z,100548.41
2022-08-25T00:05:19.117Z,100554.82
2022-08-25T00:06:22.891Z,100550.59
2022-08-25T00:07:26.488Z,100555.67
2022-08-25T00:08:29.468Z,100551.64
2022-08-25T00:09:37.488Z,100547.56
2022-08-25T00:10:43.430Z,100547.56
2022-08-25T00:11:51.663Z,100552.32
2022-08-25T00:13:00.453Z,100549.94
2022-08-25T00:14:08.768Z,100557.84
2022-08-25T00:16:35.615Z,100548.94
2022-08-25T00:17:40.236Z,100551.19
2022-08-25T00:18:46.691Z,100553.12
2022-08-25T00:21:06.454Z,100548.05
2022-08-25T00:22:10.018Z,100556.58
2022-08-25T00:23:13.729Z,100558.22
2022-08-25T00:24:19.782Z,100552.13
2022-08-25T00:25:27.474Z,100549.80
2022-08-25T00:26:33.646Z,100549.48
2022-08-25T00:27:37.215Z,100554.03
2022-08-25T00:28:41.631Z,100547.78
2022-08-25T00:29:45.217Z,100550.48
2022-08-25T00:30:49.363Z,100545.39
2022-08-25T00:31:55.320Z,100552.48
2022-08-25T00:32:58.178Z,100548.77
2022-08-25T00:34:01.291Z,100553.33
2022-08-25T00:35:05.969Z,100551.58
2022-08-25T00:36:15.561Z,100549.25
2022-08-25T00:37:19.875Z,100552.11
2022-08-25T00:38:24.445Z,100548.72
2022-08-25T00:39:27.255Z,100544.33
2022-08-25T00:40:33.233Z,100552.41
2022-08-25T00:41:38.643Z,100550.55
2022-08-25T00:42:46.132Z,100553.72
2022-08-25T00:43:53.568Z,100547.95
2022-08-25T00:44:56.444Z,100548.34
2022-08-25T00:46:03.345Z,100546.31
2022-08-25T00:47:09.401Z,100544.30
2022-08-25T00:48:13.965Z,100552.88
2022-08-25T00:49:47.258Z,100551.50
2022-08-25T00:50:53.492Z,100551.18
2022-08-25T00:52:19.535Z,100552.72
2022-08-25T00:53:24.930Z,100554.50
2022-08-25T00:54:34.299Z,100557.70
2022-08-25T00:55:41.050Z,100546.06
2022-08-25T00:56:46.144Z,100551.46
2022-08-25T00:58:00.236Z,100546.60
2022-08-25T00:59:08.879Z,100550.45
2022-08-25T01:00:27.051Z,100548.61
2022-08-25T01:01:30.272Z,100547.77
2022-08-25T01:02:34.136Z,100550.93
2022-08-25T01:03:38.004Z,100554.32
2022-08-25T01:04:47.583Z,100552.41
2022-08-25T01:05:48.340Z,100548.23
2022-08-25T01:06:52.785Z,100551.63
2022-08-25T01:08:01.193Z,100548.55
2022-08-25T01:09:08.980Z,100548.02
2022-08-25T01:10:13.672Z,100544.12
2022-08-25T01:11:17.214Z,100550.52
2022-08-25T01:12:25.607Z,100547.28
2022-08-25T01:14:54.875Z,100553.59
2022-08-25T01:15:59.552Z,100553.07
2022-08-25T01:17:05.161Z,100549.30
2022-08-25T01:18:09.543Z,100542.75
2022-08-25T01:19:15.655Z,100551.84
2022-08-25T01:21:43.122Z,100547.83
2022-08-25T01:22:55.071Z,100536.38
2022-08-25T01:23:56.374Z,100543.62
2022-08-25T01:25:03.332Z,100539.31
2022-08-25T01:26:13.882Z,100534.30
2022-08-25T01:27:17.004Z,100535.30
2022-08-25T01:28:24.713Z,100538.77
2022-08-25T01:29:31.646Z,100536.38
2022-08-25T01:30:34.934Z,100539.08
2022-08-25T01:31:39.788Z,100538.57
2022-08-25T01:32:42.701Z,100531.33
2022-08-25T01:33:49.606Z,100544.03
2022-08-25T01:34:53.259Z,100542.73
2022-08-25T01:35:57.117Z,100539.72
2022-08-25T01:37:02.814Z,100537.64
2022-08-25T01:38:09.732Z,100538.44
2022-08-25T01:39:16.588Z,100534.89
2022-08-25T01:40:23.577Z,100537.89
2022-08-25T01:41:38.597Z,100545.89
2022-08-25T01:43:07.598Z,100536.74
2022-08-25T01:44:16.451Z,100536.11
2022-08-25T01:46:36.582Z,100535.80
2022-08-25T01:47:41.622Z,100541.89
2022-08-25T01:48:48.763Z,100533.34
2022-08-25T01:49:52.502Z,100539.89
2022-08-25T01:50:55.759Z,100538.50
2022-08-25T01:52:30.163Z,100542.53
2022-08-25T01:53:33.900Z,100541.13
2022-08-25T01:54:37.647Z,100548.06
2022-08-25T01:55:52.995Z,100543.67
2022-08-25T01:56:57.671Z,100539.59
2022-08-25T01:58:03.550Z,100541.28
2022-08-25T01:59:10.900Z,100545.43
2022-08-25T02:00:17.703Z,100536.89
2022-08-25T02:01:25.605Z,100541.34
2022-08-25T02:02:29.242Z,100542.19
2022-08-25T02:03:41.186Z,100547.73
2022-08-25T02:04:44.708Z,100545.89
2022-08-25T02:05:52.492Z,100537.14
2022-08-25T02:06:56.372Z,100545.83
2022-08-25T02:08:00.988Z,100537.59
2022-08-25T02:09:10.935Z,100539.04
2022-08-25T02:10:14.761Z,100539.44
2022-08-25T02:11:19.410Z,100536.05
2022-08-25T02:12:23.933Z,100536.20
2022-08-25T02:13:31.665Z,100537.05
2022-08-25T02:14:36.994Z,100538.44
2022-08-25T02:15:48.122Z,100539.14
2022-08-25T02:16:54.572Z,100539.14
2022-08-25T02:17:59.463Z,100532.66
2022-08-25T02:19:06.006Z,100535.89
2022-08-25T02:20:12.420Z,100538.28
2022-08-25T02:21:16.094Z,100542.03
2022-08-25T02:22:20.636Z,100526.88
2022-08-25T02:23:23.973Z,100542.19
2022-08-25T02:24:29.855Z,100534.66
2022-08-25T02:25:35.340Z,100538.28
2022-08-25T02:26:39.221Z,100532.74
2022-08-25T02:27:44.754Z,100538.98
2022-08-25T02:28:48.813Z,100543.09
2022-08-25T02:29:56.103Z,100539.55
2022-08-25T02:31:01.759Z,100543.09
2022-08-25T02:32:07.903Z,100537.55
2022-08-25T02:33:12.194Z,100541.54
2022-08-25T02:34:16.216Z,100533.46
2022-08-25T02:35:21.851Z,100542.69
2022-08-25T02:36:28.595Z,100540.99
2022-08-25T02:37:33.944Z,100544.53
2022-08-25T02:38:38.181Z,100536.98
2022-08-25T02:39:42.765Z,100542.62
2022-08-25T02:40:46.444Z,100537.38
2022-08-25T02:41:51.368Z,100532.91
2022-08-25T02:42:58.366Z,100546.70
2022-08-25T02:44:04.230Z,100539.70
2022-08-25T02:45:08.507Z,100542.54
2022-08-25T02:46:13.544Z,100541.84
2022-08-25T02:47:20.462Z,100544.38
2022-08-25T02:48:28.544Z,100537.00
2022-08-25T02:49:34.748Z,100538.37
2022-08-25T02:50:38.564Z,100540.62
2022-08-25T03:13:21.180Z,100551.25
2022-08-25T03:14:25.569Z,100548.92
2022-08-25T03:15:30.492Z,100543.61
2022-08-25T03:16:37.310Z,100541.00
2022-08-25T03:17:43.807Z,100544.76
2022-08-25T03:18:47.285Z,100549.15
2022-08-25T03:19:49.848Z,100539.23
2022-08-25T03:20:53.572Z,100547.86
2022-08-25T03:21:58.594Z,100544.16
2022-08-25T03:23:07.372Z,100549.63
2022-08-25T03:24:11.562Z,100548.41
2022-08-25T03:25:34.726Z,100547.01
2022-08-25T03:26:57.574Z,100544.23
2022-08-25T03:28:01.438Z,100541.54
2022-08-25T03:29:06.356Z,100539.55
2022-08-25T03:30:12.253Z,100537.15
2022-08-25T03:31:14.850Z,100544.37
2022-08-25T03:32:19.743Z,100544.66
2022-08-25T03:33:22.277Z,100551.59
2022-08-25T03:34:30.084Z,100547.36
2022-08-25T03:35:34.440Z,100540.12
2022-08-25T03:36:39.244Z,100538.28
2022-08-25T03:37:42.391Z,100540.55
2022-08-25T03:38:46.190Z,100536.98
2022-08-25T03:39:49.694Z,100540.34
2022-08-25T03:40:53.452Z,100540.04
2022-08-25T03:41:59.876Z,100535.34
2022-08-25T03:43:03.406Z,100543.59
2022-08-25T03:44:11.507Z,100545.36
2022-08-25T03:45:18.400Z,100538.34
2022-08-25T03:46:27.825Z,100543.37
2022-08-25T03:47:31.254Z,100531.66
2022-08-25T03:48:34.056Z,100538.28
2022-08-25T03:49:38.787Z,100543.03
2022-08-25T03:50:50.705Z,100538.05
2022-08-25T03:51:56.486Z,100544.73
2022-08-25T03:53:02.752Z,100541.50
2022-08-25T03:54:07.499Z,100542.83
2022-08-25T03:55:13.025Z,100535.89
2022-08-25T03:56:18.696Z,100541.34
2022-08-25T03:57:27.972Z,100539.20
2022-08-25T03:58:31.650Z,100546.28
2022-08-25T03:59:34.952Z,100539.04
2022-08-25T04:00:39.599Z,100536.09
2022-08-25T04:01:48.428Z,100532.55
2022-08-25T04:02:52.492Z,100539.34
2022-08-25T04:04:03.624Z,100538.03
2022-08-25T04:05:08.929Z,100544.31
2022-08-25T04:06:13.411Z,100537.34
2022-08-25T04:07:21.157Z,100536.34
2022-08-25T04:08:26.438Z,100537.72
2022-08-25T04:09:36.431Z,100545.47
2022-08-25T04:10:38.086Z,100535.23
2022-08-25T04:11:44.832Z,100543.47
2022-08-25T04:12:51.987Z,100538.47
2022-08-25T04:13:59.186Z,100538.16
2022-08-25T04:15:08.192Z,100538.77
2022-08-25T04:16:18.134Z,100539.08
2022-08-25T04:17:21.946Z,100537.50
2022-08-25T04:18:26.593Z,100537.00
2022-08-25T04:19:31.190Z,100537.00
2022-08-25T04:20:36.380Z,100538.51
2022-08-25T04:21:41.436Z,100533.19
2022-08-25T04:22:45.504Z,100533.57
2022-08-25T04:23:53.328Z,100535.92
2022-08-25T04:24:58.285Z,100531.95
2022-08-25T04:26:05.003Z,100526.62
2022-08-25T04:27:08.724Z,100527.43
2022-08-25T04:28:12.161Z,100530.97
2022-08-25T04:29:17.568Z,100529.34
2022-08-25T04:30:22.854Z,100526.96
2022-08-25T04:31:27.071Z,100534.27
2022-08-25T04:32:33.163Z,100529.88
2022-08-25T04:33:38.594Z,100531.91
2022-08-25T04:34:43.011Z,100532.20
2022-08-25T04:35:50.473Z,100524.97
2022-08-25T04:36:53.767Z,100529.64
2022-08-25T04:37:58.350Z,100520.70
2022-08-25T04:39:03.212Z,100519.88
2022-08-25T04:40:10.969Z,100518.66
2022-08-25T04:41:18.534Z,100528.80
2022-08-25T04:42:21.599Z,100520.08
2022-08-25T04:43:25.209Z,100520.41
2022-08-25T04:44:29.721Z,100517.38
2022-08-25T04:45:40.226Z,100520.30
2022-08-25T04:46:44.774Z,100529.27
2022-08-25T04:47:51.770Z,100523.53
2022-08-25T04:48:58.683Z,100524.42
2022-08-25T04:50:04.796Z,100522.08
2022-08-25T04:51:14.472Z,100523.94
2022-08-25T04:52:21.448Z,100528.01
2022-08-25T04:53:24.053Z,100522.93
2022-08-25T04:54:28.878Z,100525.82
2022-08-25T04:55:33.948Z,100524.32
2022-08-25T04:56:42.015Z,100510.83
2022-08-25T04:57:45.621Z,100517.75
2022-08-25T04:58:50.314Z,100512.86
2022-08-25T04:59:53.884Z,100516.23
2022-08-25T05:01:12.144Z,100513.55
2022-08-25T05:02:16.902Z,100506.96
2022-08-25T05:03:20.101Z,100498.31
2022-08-25T05:04:28.118Z,100506.72
2022-08-25T05:05:28.850Z,100519.23
2022-08-25T05:06:35.597Z,100512.35
2022-08-25T05:07:38.999Z,100514.38
2022-08-25T05:08:42.644Z,100521.57
2022-08-25T05:09:49.108Z,100523.77
2022-08-25T05:12:07.148Z,100537.77
2022-08-25T05:13:13.162Z,100527.25
2022-08-25T05:14:20.853Z,100529.58
2022-08-25T05:15:45.450Z,100533.61
2022-08-25T05:16:50.726Z,100532.63
2022-08-25T05:17:56.099Z,100527.88
2022-08-25T05:18:59.791Z,100526.58
2022-08-25T05:20:07.729Z,100526.74
2022-08-25T05:21:14.723Z,100517.98
2022-08-25T05:22:20.853Z,100521.67
2022-08-25T05:23:25.926Z,100524.87
2022-08-25T05:24:30.233Z,100523.55
2022-08-25T05:25:35.190Z,100528.43
2022-08-25T05:26:47.659Z,100529.09
2022-08-25T05:27:54.280Z,100520.83
2022-08-25T05:28:59.746Z,100520.27
2022-08-25T05:30:04.088Z,100516.72
2022-08-25T05:31:09.142Z,100522.70
2022-08-25T05:32:15.909Z,100511.19
2022-08-25T05:33:22.332Z,100520.75
2022-08-25T05:34:26.148Z,100519.75
2022-08-25T05:35:29.792Z,100521.67
2022-08-25T05:36:36.017Z,100526.81
2022-08-25T05:37:41.780Z,100523.29
2022-08-25T05:38:44.654Z,100520.79
2022-08-25T05:39:48.971Z,100527.03
2022-08-25T05:40:57.193Z,100528.09
2022-08-25T05:42:00.720Z,100520.97
2022-08-25T05:43:04.217Z,100524.02
2022-08-25T05:44:09.413Z,100524.34
2022-08-25T05:45:14.294Z,100526.69
2022-08-25T05:46:23.580Z,100529.25
2022-08-25T05:47:32.600Z,100525.33
2022-08-25T05:48:37.823Z,100519.53
2022-08-25T05:49:40.520Z,100515.45
2022-08-25T05:50:55.907Z,100520.92
2022-08-25T05:52:00.284Z,100525.35
2022-08-25T05:53:04.067Z,100521.86
2022-08-25T05:54:08.415Z,100514.52
2022-08-25T05:55:12.431Z,100519.72
2022-08-25T05:56:20.336Z,100521.93
2022-08-25T05:57:24.040Z,100524.73
2022-08-25T05:58:31.079Z,100514.31
2022-08-25T05:59:34.809Z,100521.55
2022-08-25T06:00:39.995Z,100525.84
2022-08-25T06:02:02.543Z,100522.13
2022-08-25T06:03:10.079Z,100522.45
2022-08-25T06:04:16.722Z,100527.85
2022-08-25T06:05:24.442Z,100527.77
2022-08-25T06:06:28.113Z,100530.81
2022-08-25T06:07:33.138Z,100535.44
2022-08-25T06:08:38.574Z,100540.79
2022-08-25T06:09:47.542Z,100538.45
2022-08-25T06:10:52.548Z,100544.80
2022-08-25T06:11:56.708Z,100541.22
2022-08-25T06:13:02.555Z,100539.00
2022-08-25T06:14:11.768Z,100540.43
2022-08-25T06:15:17.604Z,100536.19
2022-08-25T06:16:22.491Z,100535.60
2022-08-25T06:17:26.382Z,100533.02
2022-08-25T06:18:31.581Z,100532.56
2022-08-25T06:19:34.632Z,100531.97
2022-08-25T06:20:41.219Z,100542.13
2022-08-25T06:21:47.515Z,100535.57
2022-08-25T06:22:52.023Z,100537.12
2022-08-25T06:23:55.592Z,100536.27
2022-08-25T06:24:58.717Z,100537.57
2022-08-25T06:26:05.289Z,100528.69
2022-08-25T06:27:08.480Z,100537.72
2022-08-25T06:28:13.450Z,100536.17
2022-08-25T06:29:20.897Z,100535.53
2022-08-25T06:30:28.920Z,100538.52
2022-08-25T06:31:33.364Z,100537.32
2022-08-25T06:32:41.684Z,100532.02
2022-08-25T06:33:47.010Z,100533.57
2022-08-25T06:34:50.373Z,100527.36
2022-08-25T06:35:56.686Z,100526.61
2022-08-25T06:37:01.607Z,100530.02
2022-08-25T06:38:06.082Z,100531.46
2022-08-25T06:39:10.549Z,100520.08
2022-08-25T06:40:19.485Z,100527.45
2022-08-25T06:41:22.698Z,100525.57
2022-08-25T06:42:25.770Z,100520.59
2022-08-25T06:43:29.639Z,100528.97
2022-08-25T06:44:33.178Z,100526.92
2022-08-25T06:45:35.608Z,100526.40
2022-08-25T06:46:41.179Z,100538.78
2022-08-25T06:47:45.549Z,100536.55
2022-08-25T06:48:50.186Z,100541.22
2022-08-25T06:49:57.151Z,100545.81
2022-08-25T06:51:00.706Z,100553.26
2022-08-25T06:52:08.197Z,100558.45
2022-08-25T06:53:12.666Z,100568.39
2022-08-25T06:54:18.016Z,100578.55
2022-08-25T06:55:21.383Z,100591.95
2022-08-25T06:56:25.480Z,100599.45
2022-08-25T06:57:34.461Z,100606.15
2022-08-25T06:58:38.172Z,100615.91
2022-08-25T06:59:42.090Z,100611.94
2022-08-25T07:00:47.281Z,100619.91
2022-08-25T07:01:51.281Z,100616.70
2022-08-25T07:02:58.796Z,100612.18
2022-08-25T07:04:10.094Z,100623.45
2022-08-25T07:05:17.021Z,100630.79
2022-08-25T07:06:27.041Z,100637.22
2022-08-25T07:07:43.012Z,100642.50
2022-08-25T07:08:37.715Z,100644.16
2022-08-25T07:09:41.397Z,100638.16
2022-08-25T07:10:48.175Z,100641.83
2022-08-25T07:11:51.021Z,100655.02
2022-08-25T07:12:55.511Z,100648.59
2022-08-25T07:13:59.683Z,100644.34
2022-08-25T07:15:19.369Z,100645.27
2022-08-25T07:16:11.708Z,100635.31
2022-08-25T07:17:15.690Z,100650.25
2022-08-25T07:18:20.133Z,100652.81
2022-08-25T07:19:25.191Z,100651.19
2022-08-25T07:20:33.219Z,100637.68
2022-08-25T07:21:41.767Z,100647.66
2022-08-25T07:22:48.110Z,100646.34
2022-08-25T07:23:55.254Z,100653.58
2022-08-25T07:24:57.688Z,100658.41
2022-08-25T07:26:37.768Z,100643.70
2022-08-25T07:27:26.588Z,100646.80
2022-08-25T07:28:33.087Z,100643.55
2022-08-25T07:29:42.711Z,100638.48
2022-08-25T07:30:51.772Z,100645.86
2022-08-25T07:31:54.265Z,100646.01
2022-08-25T07:32:58.000Z,100643.20
2022-08-25T07:34:18.963Z,100642.62
2022-08-25T07:35:24.562Z,100635.30
2022-08-25T07:36:33.573Z,100631.93
2022-08-25T07:37:49.731Z,100630.98
2022-08-25T07:38:46.929Z,100633.64
2022-08-25T07:39:50.830Z,100622.91
2022-08-25T07:41:06.510Z,100632.64
2022-08-25T07:42:12.035Z,100632.05
2022-08-25T07:43:14.285Z,100625.36
2022-08-25T07:44:19.031Z,100616.28
2022-08-25T07:45:27.254Z,100622.92
2022-08-25T07:46:33.587Z,100622.56
2022-08-25T07:47:40.314Z,100616.47
2022-08-25T07:48:53.273Z,100620.13
2022-08-25T07:49:54.758Z,100627.34
2022-08-25T07:50:58.904Z,100628.41
2022-08-25T07:52:04.717Z,100632.45
2022-08-25T07:53:16.940Z,100631.67
2022-08-25T07:54:20.700Z,100620.84
2022-08-25T07:55:32.217Z,100622.29
2022-08-25T07:56:35.477Z,100620.44
2022-08-25T07:57:55.366Z,100623.23
2022-08-25T07:59:00.483Z,100623.84
2022-08-25T08:00:07.473Z,100623.81
2022-08-25T08:01:17.038Z,100619.55
2022-08-25T08:02:20.680Z,100612.24
2022-08-25T08:04:42.657Z,100614.47
2022-08-25T08:05:49.511Z,100611.83
2022-08-25T08:06:53.562Z,100610.67
2022-08-25T08:07:58.982Z,100612.34
2022-08-25T08:09:03.831Z,100612.24
2022-08-25T08:10:42.186Z,100606.94
2022-08-25T08:11:23.952Z,100597.44
2022-08-25T08:12:29.579Z,100599.94
2022-08-25T08:13:39.313Z,100599.73
2022-08-25T08:14:44.996Z,100590.16
2022-08-25T08:15:47.039Z,100593.06
2022-08-25T08:16:53.126Z,100590.81
2022-08-25T08:17:57.078Z,100588.63
2022-08-25T08:19:04.710Z,100589.83
2022-08-25T08:21:30.678Z,100578.14
2022-08-25T08:22:34.199Z,100591.57
2022-08-25T08:23:37.217Z,100577.72
2022-08-25T08:24:44.909Z,100577.22
2022-08-25T08:25:45.900Z,100580.00
2022-08-25T08:26:58.712Z,100564.52
2022-08-25T08:27:56.040Z,100567.30
2022-08-25T08:28:59.648Z,100573.45
2022-08-25T08:30:04.963Z,100560.20
2022-08-25T08:31:10.562Z,100574.25
2022-08-25T08:32:17.071Z,100568.47
2022-08-25T08:33:23.228Z,100564.67
2022-08-25T08:34:27.098Z,100560.41
2022-08-25T08:35:31.368Z,100555.34
2022-08-25T08:36:35.041Z,100564.59
2022-08-25T08:37:39.871Z,100560.26
2022-08-25T08:38:47.106Z,100567.42
2022-08-25T08:39:51.993Z,100568.58
2022-08-25T08:41:27.141Z,100555.98
2022-08-25T08:43:04.633Z,100552.23
2022-08-25T08:44:19.335Z,100542.52
2022-08-25T08:45:40.554Z,100547.39
2022-08-25T08:46:52.219Z,100548.06
2022-08-25T08:48:17.774Z,100552.78
2022-08-25T08:49:29.118Z,100542.53
2022-08-25T08:50:49.328Z,100544.67
2022-08-25T08:51:58.583Z,100539.16
2022-08-25T08:53:26.527Z,100543.61
2022-08-25T08:54:34.911Z,100546.13
2022-08-25T08:55:52.286Z,100539.95
2022-08-25T08:57:06.665Z,100536.25
2022-08-25T08:58:15.265Z,100549.60
2022-08-25T08:59:29.944Z,100544.04
2022-08-25T09:00:42.147Z,100542.37
2022-08-25T09:01:53.311Z,100544.78
2022-08-25T09:03:03.385Z,100546.75
2022-08-25T09:04:40.960Z,100544.67
2022-08-25T09:05:51.076Z,100544.67
2022-08-25T09:06:57.119Z,100545.91
2022-08-25T09:08:11.333Z,100552.36
2022-08-25T09:09:20.203Z,100549.00
2022-08-25T09:10:29.178Z,100548.56
2022-08-25T09:11:37.120Z,100548.56
2022-08-25T09:12:58.189Z,100542.25
2022-08-25T09:14:40.529Z,100542.25
2022-08-25T09:16:09.447Z,100545.83
2022-08-25T09:18:53.264Z,100538.77
2022-08-25T09:20:37.011Z,100535.69
2022-08-25T09:21:47.722Z,100536.50
2022-08-25T09:22:58.385Z,100532.66
2022-08-25T09:24:12.065Z,100528.25
2022-08-25T09:25:52.976Z,100548.19
2022-08-25T09:27:06.801Z,100543.70
2022-08-25T09:28:30.162Z,100529.87
2022-08-25T09:31:07.919Z,100528.89
2022-08-25T09:32:12.718Z,100528.28
2022-08-25T09:33:22.041Z,100532.64
2022-08-25T09:34:32.874Z,100532.64
2022-08-25T09:35:42.682Z,100533.47
2022-08-25T09:36:48.627Z,100529.89
2022-08-25T09:38:00.938Z,100529.03
2022-08-25T09:39:06.569Z,100523.39
2022-08-25T09:40:13.300Z,100523.23
2022-08-25T09:41:19.533Z,100523.23
2022-08-25T09:42:28.700Z,100525.36
2022-08-25T09:43:38.102Z,100525.36
2022-08-25T09:44:44.794Z,100523.39
2022-08-25T09:45:55.461Z,100517.69
2022-08-25T09:47:21.135Z,100512.67
2022-08-25T09:50:05.503Z,100514.22
2022-08-25T09:51:43.016Z,100513.77
2022-08-25T09:52:45.048Z,100507.94
2022-08-25T09:53:59.154Z,100502.62
2022-08-25T09:55:15.401Z,100496.99
2022-08-25T09:56:22.363Z,100513.49
2022-08-25T09:57:52.970Z,100501.05
2022-08-25T09:59:03.054Z,100505.50
2022-08-25T10:00:17.981Z,100505.45
2022-08-25T10:01:23.716Z,100507.15
2022-08-25T10:02:33.467Z,100502.01
2022-08-25T10:03:41.879Z,100508.38
2022-08-25T10:04:46.650Z,100506.95
2022-08-25T10:05:59.968Z,100511.04
2022-08-25T10:07:29.130Z,100503.77
2022-08-25T10:08:39.538Z,100505.14
2022-08-25T10:09:53.772Z,100496.81
2022-08-25T10:11:02.023Z,100504.58
2022-08-25T10:12:21.197Z,100495.99
2022-08-25T10:13:51.435Z,100490.84
2022-08-25T10:14:57.036Z,100492.32
2022-08-25T10:16:20.003Z,100488.80
2022-08-25T10:17:24.609Z,100487.75
2022-08-25T10:18:30.427Z,100490.75
2022-08-25T10:19:35.592Z,100506.53
2022-08-25T10:20:44.407Z,100487.91
2022-08-25T10:21:52.116Z,100501.67
2022-08-25T10:23:14.764Z,100492.51
2022-08-25T10:24:19.493Z,100490.12
2022-08-25T10:25:27.068Z,100484.69
2022-08-25T10:26:52.247Z,100497.06
2022-08-25T10:28:11.626Z,100497.92
2022-08-25T10:29:41.852Z,100492.46
2022-08-25T10:31:09.641Z,100486.97
2022-08-25T10:32:20.490Z,100484.64
2022-08-25T10:33:46.096Z,100487.48
2022-08-25T10:36:15.171Z,100472.20
2022-08-25T10:37:35.399Z,100472.20
2022-08-25T10:38:48.916Z,100477.75
2022-08-25T10:39:58.237Z,100477.75
2022-08-25T10:41:18.073Z,100473.88
2022-08-25T10:42:25.982Z,100477.49
2022-08-25T10:43:41.402Z,100476.66
2022-08-25T10:45:16.624Z,100470.55
2022-08-25T10:46:41.725Z,100471.33
2022-08-25T10:48:12.329Z,100471.33
2022-08-25T10:51:08.537Z,100468.64
2022-08-25T10:52:34.654Z,100471.48
2022-08-25T10:53:58.204Z,100456.63
2022-08-25T10:55:20.208Z,100460.37
2022-08-25T10:56:34.715Z,100459.59
2022-08-25T10:58:04.505Z,100452.74
2022-08-25T10:59:30.079Z,100460.84
2022-08-25T11:00:47.052Z,100450.37
2022-08-25T11:02:11.701Z,100444.24
2022-08-25T11:03:54.034Z,100445.77
2022-08-25T11:05:07.502Z,100441.78
2022-08-25T11:06:32.639Z,100446.61
2022-08-25T11:07:57.403Z,100440.45
2022-08-25T11:10:31.206Z,100437.39
2022-08-25T11:12:00.173Z,100434.61
2022-08-25T11:13:11.319Z,100442.33
2022-08-25T11:14:22.635Z,100443.33
2022-08-25T11:15:31.170Z,100440.34
2022-08-25T11:16:46.133Z,100435.14
2022-08-25T11:18:02.340Z,100437.93
2022-08-25T11:19:20.166Z,100434.61
2022-08-25T11:20:33.865Z,100433.98
2022-08-25T11:21:57.231Z,100437.89
2022-08-25T11:23:16.927Z,100424.08
2022-08-25T11:26:03.309Z,100424.51
2022-08-25T11:27:13.628Z,100437.47
2022-08-25T11:28:35.211Z,100426.14
2022-08-25T11:29:45.129Z,100424.55
2022-08-25T11:30:56.501Z,100428.78
2022-08-25T11:32:01.353Z,100430.11
2022-08-25T11:33:07.772Z,100426.55
2022-08-25T11:34:21.813Z,100418.42
2022-08-25T11:35:32.020Z,100424.13
2022-08-25T11:36:42.492Z,100433.99
2022-08-25T11:39:38.880Z,100414.57
2022-08-25T11:41:24.207Z,100421.72
2022-08-25T11:42:49.291Z,100416.17
2022-08-25T11:44:19.155Z,100408.77
2022-08-25T11:45:38.817Z,100418.48
2022-08-25T11:47:02.340Z,100421.93
2022-08-25T11:48:31.360Z,100414.77
2022-08-25T11:51:09.414Z,100409.88
2022-08-25T11:52:36.229Z,100409.20
2022-08-25T11:53:43.506Z,100410.32
2022-08-25T11:54:49.093Z,100402.17
2022-08-25T11:55:59.683Z,100406.66
2022-08-25T11:57:12.295Z,100407.66
2022-08-25T11:58:35.606Z,100411.30
2022-08-25T11:59:59.403Z,100405.31
2022-08-25T12:01:06.044Z,100400.63
2022-08-25T12:02:15.497Z,100402.23
2022-08-25T12:03:39.143Z,100399.80
2022-08-25T12:04:44.699Z,100395.56
2022-08-25T12:05:51.474Z,100396.72
2022-08-25T12:07:10.644Z,100396.88
2022-08-25T12:08:31.204Z,100398.70
2022-08-25T12:09:57.650Z,100399.47
2022-08-25T12:11:11.089Z,100395.52
2022-08-25T12:12:26.533Z,100394.41
2022-08-25T12:13:51.359Z,100399.77
2022-08-25T12:14:56.091Z,100397.14
2022-08-25T12:16:01.411Z,100399.08
2022-08-25T12:18:32.838Z,100398.91
2022-08-25T12:19:38.971Z,100401.25
2022-08-25T12:20:58.345Z,100391.83
2022-08-25T12:22:06.216Z,100389.73
2022-08-25T12:23:13.785Z,100391.84
2022-08-25T12:24:23.843Z,100384.15
2022-08-25T12:25:34.031Z,100395.66
2022-08-25T12:26:47.295Z,100382.08
2022-08-25T12:28:17.630Z,100379.17
2022-08-25T12:29:49.447Z,100384.17
2022-08-25T12:31:33.400Z,100380.84
2022-08-25T12:33:40.658Z,100382.70
2022-08-25T12:34:48.552Z,100373.39
2022-08-25T12:36:49.754Z,100389.17
2022-08-25T12:38:30.046Z,100380.36
2022-08-25T12:40:31.655Z,100379.02
2022-08-25T12:42:32.060Z,100383.40
2022-08-25T12:44:31.754Z,100374.98
2022-08-25T12:46:13.567Z,100374.62
2022-08-25T12:48:14.412Z,100378.91
2022-08-25T12:49:52.856Z,100376.84
2022-08-25T12:51:06.385Z,100375.93
2022-08-25T12:53:06.185Z,100376.61
2022-08-25T12:54:47.661Z,100371.19
2022-08-25T12:56:13.172Z,100375.17
2022-08-25T12:57:24.972Z,100370.48
2022-08-25T13:01:57.478Z,100367.18
2022-08-25T13:05:24.065Z,100371.20
2022-08-25T13:06:51.779Z,100373.78
2022-08-25T13:08:04.982Z,100364.86
2022-08-25T13:09:32.517Z,100368.27
2022-08-25T13:10:59.210Z,100363.58
2022-08-25T13:12:27.707Z,100379.28
2022-08-25T13:15:08.644Z,100368.75
2022-08-25T13:16:32.307Z,100373.75
2022-08-25T13:17:38.304Z,100364.12
2022-08-25T13:18:41.038Z,100364.55
2022-08-25T13:19:44.586Z,100361.11
2022-08-25T13:20:56.587Z,100363.39
2022-08-25T13:22:15.532Z,100366.20
2022-08-25T13:23:20.961Z,100375.38
2022-08-25T13:25:46.251Z,100355.89
2022-08-25T13:26:53.349Z,100362.93
2022-08-25T13:28:00.875Z,100378.58
2022-08-25T13:29:11.569Z,100367.03
2022-08-25T13:31:42.084Z,100367.55
2022-08-25T13:32:45.792Z,100362.37
2022-08-25T13:34:05.423Z,100370.27
2022-08-25T13:35:14.700Z,100352.73
2022-08-25T13:36:38.795Z,100355.63
2022-08-25T13:37:44.106Z,100361.98
2022-08-25T13:38:51.742Z,100352.40
2022-08-25T13:40:17.943Z,100367.55
2022-08-25T13:41:28.772Z,100367.02
2022-08-25T13:42:30.627Z,100364.08
2022-08-25T13:43:36.158Z,100368.75
2022-08-25T13:44:41.126Z,100362.91
2022-08-25T13:45:51.057Z,100360.70
2022-08-25T13:47:15.639Z,100363.67
2022-08-25T13:48:39.620Z,100371.36
2022-08-25T13:49:48.380Z,100365.25
2022-08-25T13:50:52.877Z,100361.52
2022-08-25T13:52:00.683Z,100354.11
2022-08-25T13:53:13.967Z,100355.28
2022-08-25T13:54:40.551Z,100353.41
2022-08-25T13:55:57.676Z,100350.81
2022-08-25T13:57:18.550Z,100348.70
2022-08-25T13:58:39.255Z,100359.88
2022-08-25T13:59:40.210Z,100350.16
2022-08-25T14:00:49.793Z,100346.31
2022-08-25T14:01:59.992Z,100351.83
2022-08-25T14:03:13.122Z,100348.59
2022-08-25T14:04:33.261Z,100342.13
2022-08-25T14:05:42.726Z,100353.61
2022-08-25T14:06:47.804Z,100352.39
2022-08-25T14:08:03.796Z,100353.03
2022-08-25T14:09:06.084Z,100336.36
2022-08-25T14:10:13.810Z,100344.96
2022-08-25T14:11:33.805Z,100349.27
2022-08-25T14:12:47.373Z,100349.55
2022-08-25T14:13:54.968Z,100350.69
2022-08-25T14:15:06.185Z,100343.42
2022-08-25T14:16:22.808Z,100348.19
2022-08-25T14:17:39.314Z,100346.62